Snover, Michigan
Current Conditions -  °F | °C
As of 11:35 PM on Wednesday 26 Nov 2014 (Local Time) from KBAX Reporting Station
Overcast Overcast  
Wind Chill: 24°   Ceiling: 4600
Heat Index: 29°   Visibility: 7mi
Dew Point: 28°   Wind: 5mph
Humidity: 96%   Direction: 330°NNW
Pressure: 30.1"   Gusts: NA
Location:  43.46°N, 82.97°W
Report Text: KBAX 270435Z AUTO 33004KT 7SM SCT008 SCT024 OVC046 M01/M02 A3010 RMK AO2 T10151020
Loading
Personal Weather Stations






























Interactive Weather Map New forecast layout! Learn more

10-Day Weather Forecast

Advertisements
Track Severe Weather on mobile